KILG/ILG METAR and TAF weather

Enter ICAO airport designator
Station Type Date Time Source
KILG METAR 2021/05/14 04:51 UTC NOAA

KILG 140451Z AUTO 30003KT 10SM CLR 10/04 A3022 RMK AO2 SLP234 T01000044 402220067


Station Type Date Time Source
KILG Decoded METAR 2021/05/14 04:51 UTC NOAA

WILMINGTON NEW CASTLE CO, DE, United States (KILG) 39-40N 075-36W 28M
May 14, 2021 - 12:51 AM EDT / 2021.05.14 0451 UTC
Wind: from the WNW (300 degrees) at 3 MPH (3 KT):0
Visibility: 10 mile(s):0
Sky conditions: clear
Temperature: 50.0 F (10.0 C)
Dew Point: 39.9 F (4.4 C)
Relative Humidity: 68%
Pressure (altimeter): 30.22 in. Hg (1023 hPa)
ob: KILG 140451Z AUTO 30003KT 10SM CLR 10/04 A3022 RMK AO2 SLP234 T01000044 402220067
cycle: 5

Station Type Date Time Source
KILG TAF 2021/05/14 04:16 UTC NOAA

TAF
AMD KILG 140414Z 1404/1424 VRB03KT P6SM SCT100
FM141300 35005KT P6SM SKC
FM142000 25007KT P6SM BKN200

Example: see airport list